createdAt,value
2018-10-02T00:01:15.769Z,33.97
2018-10-02T00:03:51.113Z,33.77
2018-10-02T00:06:26.729Z,33.81
2018-10-02T00:09:02.308Z,34.10
2018-10-02T00:11:40.053Z,33.62
2018-10-02T00:14:20.250Z,33.89
2018-10-02T00:16:55.905Z,34.05
2018-10-02T00:19:31.749Z,33.59
2018-10-02T00:22:07.530Z,33.95
2018-10-02T00:24:43.129Z,34.10
2018-10-02T00:27:18.726Z,34.65
2018-10-02T00:29:54.301Z,34.29
2018-10-02T00:32:30.105Z,34.20
2018-10-02T00:35:05.550Z,33.47
2018-10-02T00:37:40.925Z,34.48
2018-10-02T00:40:16.760Z,33.54
2018-10-02T00:42:52.311Z,33.71
2018-10-02T00:45:28.013Z,33.70
2018-10-02T00:48:03.309Z,34.42
2018-10-02T00:50:38.725Z,34.08
2018-10-02T00:53:14.361Z,33.83
2018-10-02T00:55:49.944Z,33.08
2018-10-02T00:58:25.513Z,33.26
2018-10-02T01:01:00.778Z,34.17
2018-10-02T01:03:36.349Z,33.43
2018-10-02T01:06:12.144Z,33.27
2018-10-02T01:08:47.297Z,33.20
2018-10-02T01:11:23.070Z,33.30
2018-10-02T01:13:58.777Z,33.69
2018-10-02T01:16:34.504Z,33.95
2018-10-02T01:19:10.909Z,33.30
2018-10-02T01:21:47.085Z,33.17
2018-10-02T01:24:22.532Z,33.00
2018-10-02T01:26:58.149Z,34.38
2018-10-02T01:29:33.329Z,34.27
2018-10-02T01:32:09.332Z,33.46
2018-10-02T01:34:45.149Z,33.69
2018-10-02T01:37:20.521Z,34.63
2018-10-02T01:39:54.049Z,33.81
2018-10-02T01:42:29.745Z,33.80
2018-10-02T01:45:05.333Z,33.52
2018-10-02T01:47:41.149Z,33.45
2018-10-02T01:50:17.777Z,33.22
2018-10-02T01:52:54.345Z,33.24
2018-10-02T01:55:30.048Z,33.66
2018-10-02T01:58:06.134Z,33.33
2018-10-02T02:00:41.756Z,33.53
2018-10-02T02:03:17.082Z,34.24
2018-10-02T02:05:52.533Z,33.09
2018-10-02T02:08:28.453Z,34.00
2018-10-02T02:11:04.151Z,34.12
2018-10-02T02:13:39.797Z,33.08
2018-10-02T02:16:15.797Z,33.93
2018-10-02T02:18:51.293Z,34.03
2018-10-02T02:21:26.802Z,33.39
2018-10-02T02:24:00.297Z,33.31
2018-10-02T02:26:35.809Z,33.62
2018-10-02T02:29:11.175Z,34.49
2018-10-02T02:31:46.825Z,33.45
2018-10-02T02:34:22.177Z,33.75
2018-10-02T02:36:57.361Z,33.72
2018-10-02T02:39:32.968Z,34.07
2018-10-02T02:42:08.353Z,34.24
2018-10-02T02:44:43.937Z,34.84
2018-10-02T02:47:23.146Z,34.18
2018-10-02T02:50:02.902Z,33.63
2018-10-02T02:52:44.247Z,33.78
2018-10-02T02:55:19.969Z,34.70
2018-10-02T02:57:55.877Z,34.34
2018-10-02T03:00:32.378Z,34.49
2018-10-02T03:03:07.965Z,34.47
2018-10-02T03:05:43.853Z,34.34
2018-10-02T03:08:19.192Z,34.09
2018-10-02T03:10:55.561Z,34.73
2018-10-02T03:13:31.188Z,34.62
2018-10-02T03:16:06.617Z,34.51
2018-10-02T03:18:42.190Z,34.71
2018-10-02T03:21:17.911Z,35.10
2018-10-02T03:23:53.556Z,34.67
2018-10-02T03:26:29.019Z,34.63
2018-10-02T03:29:04.475Z,34.88
2018-10-02T03:31:40.038Z,34.88
2018-10-02T03:34:15.601Z,34.09
2018-10-02T03:36:51.203Z,34.59
2018-10-02T03:39:26.597Z,34.61
2018-10-02T03:42:01.973Z,34.59
2018-10-02T03:44:37.377Z,35.24
2018-10-02T03:47:12.561Z,35.23
2018-10-02T03:49:48.533Z,35.29
2018-10-02T03:52:24.207Z,34.69
2018-10-02T03:54:59.378Z,34.35
2018-10-02T03:57:34.854Z,35.35
2018-10-02T04:00:10.591Z,34.65
2018-10-02T04:02:46.241Z,34.28
2018-10-02T04:05:21.913Z,35.48
2018-10-02T04:07:57.405Z,35.04
2018-10-02T04:10:32.831Z,34.13
2018-10-02T04:13:08.056Z,35.49
2018-10-02T04:15:43.915Z,35.08
2018-10-02T04:18:19.590Z,34.27
2018-10-02T04:20:55.232Z,36.21
2018-10-02T04:23:30.945Z,34.55
2018-10-02T04:26:06.645Z,34.57
2018-10-02T04:28:42.226Z,35.18
2018-10-02T04:31:18.132Z,35.56
2018-10-02T04:33:53.863Z,35.39
2018-10-02T04:36:29.677Z,35.26
2018-10-02T04:39:05.390Z,35.86
2018-10-02T04:41:40.978Z,36.00
2018-10-02T04:44:17.717Z,35.68
2018-10-02T04:46:53.279Z,36.37
2018-10-02T04:49:28.856Z,35.68
2018-10-02T04:52:04.413Z,35.11
2018-10-02T04:54:40.038Z,35.91
2018-10-02T04:57:15.577Z,35.76
2018-10-02T04:59:51.243Z,36.53
2018-10-02T05:02:26.664Z,36.41
2018-10-02T05:05:02.425Z,35.86
2018-10-02T05:07:38.002Z,36.16
2018-10-02T05:10:13.894Z,36.17
2018-10-02T05:12:49.239Z,37.05
2018-10-02T05:15:24.580Z,36.72
2018-10-02T05:18:00.228Z,37.40
2018-10-02T05:20:36.121Z,36.24
2018-10-02T05:23:11.618Z,37.09
2018-10-02T05:25:46.907Z,36.21
2018-10-02T05:28:22.427Z,37.01
2018-10-02T05:30:58.099Z,36.50
2018-10-02T05:33:33.451Z,37.00
2018-10-02T05:36:08.861Z,36.78
2018-10-02T05:38:44.897Z,37.07
2018-10-02T05:41:21.075Z,36.50
2018-10-02T05:43:56.857Z,36.56
2018-10-02T05:46:32.594Z,36.97
2018-10-02T05:49:08.304Z,36.21
2018-10-02T05:51:44.149Z,36.25
2018-10-02T05:54:19.634Z,36.43
2018-10-02T05:56:55.258Z,36.60
2018-10-02T05:59:30.617Z,37.56
2018-10-02T06:02:07.041Z,36.33
2018-10-02T06:04:43.002Z,37.06
2018-10-02T06:07:18.685Z,35.99
2018-10-02T06:09:54.177Z,35.97
2018-10-02T06:12:29.488Z,36.97
2018-10-02T06:15:04.981Z,36.84
2018-10-02T06:17:40.648Z,36.04
2018-10-02T06:20:16.297Z,35.78
2018-10-02T06:22:51.884Z,36.62
2018-10-02T06:25:27.654Z,36.37
2018-10-02T06:28:03.320Z,36.17
2018-10-02T06:30:39.258Z,35.98
2018-10-02T06:33:15.441Z,35.84
2018-10-02T06:35:51.109Z,35.95
2018-10-02T06:38:26.983Z,35.69
2018-10-02T06:41:02.660Z,35.92
2018-10-02T06:43:38.524Z,35.47
2018-10-02T06:46:15.602Z,36.08
2018-10-02T06:48:51.273Z,35.90
2018-10-02T06:51:26.991Z,36.33
2018-10-02T06:54:02.655Z,36.27
2018-10-02T06:56:38.295Z,35.13
2018-10-02T06:59:14.249Z,36.10
2018-10-02T07:01:49.685Z,35.85
2018-10-02T07:04:25.129Z,35.84
2018-10-02T07:07:00.659Z,36.29
2018-10-02T07:09:36.283Z,34.87
2018-10-02T07:12:12.069Z,35.70
2018-10-02T07:14:48.708Z,36.12
2018-10-02T07:17:24.500Z,36.36
2018-10-02T07:20:00.258Z,36.10
2018-10-02T07:22:35.663Z,35.57
2018-10-02T07:25:11.211Z,35.06
2018-10-02T07:27:47.250Z,35.57
2018-10-02T07:30:23.182Z,35.70
2018-10-02T07:32:58.690Z,35.08
2018-10-02T07:35:34.315Z,35.17
2018-10-02T07:40:42.274Z,36.33
2018-10-02T07:43:18.091Z,35.80
2018-10-02T07:45:53.841Z,35.50
2018-10-02T07:48:29.311Z,35.25
2018-10-02T07:51:05.144Z,35.15
2018-10-02T07:53:41.017Z,35.99
2018-10-02T07:56:16.938Z,35.96
2018-10-02T07:58:52.476Z,35.53
2018-10-02T08:01:28.137Z,35.64
2018-10-02T08:04:03.705Z,36.38
2018-10-02T08:06:39.729Z,36.02
2018-10-02T08:09:15.901Z,35.04
2018-10-02T08:11:51.964Z,35.82
2018-10-02T08:14:28.017Z,35.29
2018-10-02T08:17:04.009Z,36.14
2018-10-02T08:19:41.288Z,36.12
2018-10-02T08:22:17.277Z,36.42
2018-10-02T08:24:53.263Z,35.37
2018-10-02T08:27:29.133Z,36.45
2018-10-02T08:30:05.399Z,36.45
2018-10-02T08:32:42.033Z,35.00
2018-10-02T08:35:18.303Z,35.72
2018-10-02T08:37:54.317Z,35.79
2018-10-02T08:40:31.134Z,35.55
2018-10-02T08:43:07.109Z,35.47
2018-10-02T08:45:42.981Z,36.55
2018-10-02T08:48:19.196Z,36.41
2018-10-02T08:50:55.356Z,36.31
2018-10-02T08:53:31.568Z,36.54
2018-10-02T08:56:07.503Z,36.74
2018-10-02T08:58:43.526Z,35.83
2018-10-02T09:01:19.136Z,35.60
2018-10-02T09:03:54.909Z,35.44
2018-10-02T09:06:31.049Z,36.10
2018-10-02T09:09:07.941Z,35.88
2018-10-02T09:11:43.957Z,36.74
2018-10-02T09:14:20.065Z,36.58
2018-10-02T09:16:56.104Z,37.19
2018-10-02T09:19:31.964Z,36.40
2018-10-02T09:22:08.488Z,35.59
2018-10-02T09:24:44.579Z,36.12
2018-10-02T09:27:20.559Z,35.34
2018-10-02T09:30:00.731Z,36.35
2018-10-02T09:32:40.733Z,36.14
2018-10-02T09:35:20.516Z,35.85
2018-10-02T09:38:00.514Z,36.30
2018-10-02T09:40:40.726Z,36.32
2018-10-02T09:44:20.803Z,36.73
2018-10-02T09:46:56.530Z,36.55
2018-10-02T09:49:32.557Z,35.96
2018-10-02T09:52:08.520Z,35.61
2018-10-02T09:54:44.607Z,36.82
2018-10-02T09:57:20.515Z,35.74
2018-10-02T09:59:56.105Z,35.66
2018-10-02T10:02:38.580Z,36.70
2018-10-02T10:05:14.558Z,36.68
2018-10-02T10:07:50.559Z,37.00
2018-10-02T10:10:26.701Z,36.42
2018-10-02T10:13:02.976Z,36.02
2018-10-02T10:15:39.173Z,36.41
2018-10-02T10:18:15.181Z,35.63
2018-10-02T10:20:51.793Z,36.20
2018-10-02T10:30:22.349Z,36.32
2018-10-02T10:32:58.526Z,36.18
2018-10-02T10:35:34.664Z,35.82
2018-10-02T10:38:10.686Z,36.20
2018-10-02T10:40:47.031Z,36.16
2018-10-02T10:43:23.146Z,36.30
2018-10-02T10:45:59.300Z,36.35
2018-10-02T10:48:36.266Z,35.73
2018-10-02T10:51:12.267Z,36.75
2018-10-02T10:53:48.738Z,36.71
2018-10-02T10:56:25.051Z,35.50
2018-10-02T10:59:01.241Z,36.90
2018-10-02T11:01:37.370Z,36.97
2018-10-02T11:04:13.035Z,36.76
2018-10-02T11:06:49.250Z,35.68
2018-10-02T11:09:25.417Z,35.75
2018-10-02T11:12:01.546Z,36.52
2018-10-02T11:14:37.541Z,35.57
2018-10-02T11:17:14.546Z,36.95
2018-10-02T11:19:50.584Z,36.11
2018-10-02T11:22:26.556Z,37.04
2018-10-02T11:25:02.553Z,36.18
2018-10-02T11:27:38.557Z,36.60
2018-10-02T11:30:14.746Z,36.76
2018-10-02T11:32:50.553Z,36.79
2018-10-02T11:35:27.595Z,36.35
2018-10-02T11:38:04.357Z,35.46
2018-10-02T11:40:40.185Z,35.77
2018-10-02T11:43:21.070Z,36.67
2018-10-02T11:46:06.221Z,36.38
2018-10-02T11:48:42.270Z,36.71
2018-10-02T11:51:18.286Z,35.56
2018-10-02T11:53:54.355Z,36.02
2018-10-02T11:56:30.261Z,36.62
2018-10-02T11:59:06.300Z,36.54
2018-10-02T12:01:45.975Z,35.63
2018-10-02T12:04:22.219Z,35.56
2018-10-02T12:06:58.196Z,36.67
2018-10-02T12:09:34.374Z,36.00
2018-10-02T12:12:10.357Z,36.33
2018-10-02T12:14:46.410Z,35.95
2018-10-02T12:17:28.397Z,36.11
2018-10-02T12:20:09.857Z,36.58
2018-10-02T12:22:45.742Z,36.07
2018-10-02T12:25:21.571Z,36.53
2018-10-02T12:27:57.570Z,36.08
2018-10-02T12:30:37.402Z,36.33
2018-10-02T12:33:17.779Z,35.78
2018-10-02T12:35:53.754Z,36.07
2018-10-02T12:38:29.817Z,36.30
2018-10-02T12:41:05.764Z,36.44
2018-10-02T12:43:46.252Z,37.06
2018-10-02T12:46:22.411Z,35.67
2018-10-02T12:48:58.584Z,36.28
2018-10-02T12:51:34.582Z,36.09
2018-10-02T12:54:10.584Z,36.26
2018-10-02T12:56:46.409Z,35.82
2018-10-02T12:59:22.257Z,35.79
2018-10-02T13:02:05.171Z,36.18
2018-10-02T13:04:59.025Z,36.73
2018-10-02T13:07:35.379Z,36.89
2018-10-02T13:10:11.270Z,35.60
2018-10-02T13:12:47.422Z,35.67
2018-10-02T13:15:23.590Z,37.07
2018-10-02T13:18:03.654Z,36.14
2018-10-02T13:20:39.765Z,36.96
2018-10-02T13:23:27.601Z,36.22
2018-10-02T13:26:03.593Z,36.51
2018-10-02T13:28:39.602Z,35.71
2018-10-02T13:45:24.783Z,35.61
2018-10-02T13:48:01.176Z,36.41
2018-10-02T13:50:37.126Z,36.12
2018-10-02T13:53:13.402Z,36.20
2018-10-02T13:55:49.429Z,35.85
2018-10-02T13:58:25.422Z,35.96
2018-10-02T14:01:01.410Z,36.57
2018-10-02T14:03:37.613Z,36.84
2018-10-02T14:06:13.813Z,36.48
2018-10-02T14:08:49.610Z,36.85
2018-10-02T14:11:25.609Z,36.08
2018-10-02T14:16:48.818Z,36.98
2018-10-02T14:19:24.642Z,37.05
2018-10-02T14:22:00.443Z,35.83
2018-10-02T14:24:36.632Z,36.32
2018-10-02T14:27:12.617Z,36.11
2018-10-02T14:29:48.444Z,36.44
2018-10-02T14:32:24.430Z,36.40
2018-10-02T14:35:01.106Z,36.08
2018-10-02T14:37:37.062Z,36.53
2018-10-02T14:40:18.265Z,36.24
2018-10-02T14:42:54.455Z,36.87
2018-10-02T14:45:30.786Z,36.05
2018-10-02T14:48:06.650Z,37.19
2018-10-02T14:50:42.453Z,36.22
2018-10-02T14:53:18.424Z,36.53
2018-10-02T14:55:54.425Z,37.17
2018-10-02T14:58:30.437Z,36.44
2018-10-02T15:01:06.626Z,36.11
2018-10-02T15:03:42.833Z,36.58
2018-10-02T15:06:18.797Z,36.09
2018-10-02T15:08:54.672Z,36.71
2018-10-02T15:11:30.462Z,36.90
2018-10-02T15:14:06.411Z,36.92
2018-10-02T15:16:42.480Z,37.14
2018-10-02T15:19:18.465Z,36.71
2018-10-02T15:21:54.377Z,37.35
2018-10-02T15:24:30.639Z,36.40
2018-10-02T15:27:06.637Z,37.55
2018-10-02T15:29:42.461Z,37.02
2018-10-02T15:32:18.378Z,36.91
2018-10-02T15:34:54.424Z,36.82
2018-10-02T15:37:31.681Z,37.18
2018-10-02T15:40:07.821Z,36.39
2018-10-02T15:42:44.198Z,36.48
2018-10-02T15:45:20.235Z,36.50
2018-10-02T15:47:56.089Z,36.44
2018-10-02T15:50:32.504Z,36.87
2018-10-02T15:53:08.645Z,37.23
2018-10-02T15:55:44.648Z,37.53
2018-10-02T15:58:18.952Z,36.73
2018-10-02T16:00:55.463Z,36.92
2018-10-02T16:03:31.710Z,36.87
2018-10-02T16:06:07.650Z,37.04
2018-10-02T16:08:43.863Z,36.54
2018-10-02T16:11:19.746Z,37.46
2018-10-02T16:13:55.673Z,36.80
2018-10-02T16:16:31.309Z,36.46
2018-10-02T16:19:07.172Z,37.76
2018-10-02T16:21:43.240Z,37.07
2018-10-02T16:24:19.189Z,36.76
2018-10-02T16:26:55.233Z,36.55
2018-10-02T16:29:31.383Z,36.94
2018-10-02T16:32:07.485Z,36.66
2018-10-02T16:37:40.299Z,37.74
2018-10-02T16:40:16.595Z,37.07
2018-10-02T16:42:52.492Z,37.34
2018-10-02T16:45:28.408Z,37.78
2018-10-02T16:48:04.674Z,37.05
2018-10-02T16:50:40.679Z,37.57
2018-10-02T16:53:16.497Z,36.98
2018-10-02T16:55:52.445Z,37.01
2018-10-02T16:58:28.483Z,36.25
2018-10-02T17:01:04.505Z,37.62
2018-10-02T17:03:40.499Z,37.70
2018-10-02T17:06:16.501Z,36.85
2018-10-02T17:08:52.502Z,37.62
2018-10-02T17:11:28.675Z,37.02
2018-10-02T17:14:04.470Z,37.58
2018-10-02T17:16:40.474Z,36.87
2018-10-02T17:19:17.102Z,37.49
2018-10-02T17:21:53.337Z,36.45
2018-10-02T17:24:29.393Z,36.82
2018-10-02T17:27:05.118Z,36.81
2018-10-02T17:29:41.185Z,37.06
2018-10-02T17:32:17.428Z,36.84
2018-10-02T17:34:53.473Z,36.53
2018-10-02T17:37:29.504Z,37.29
2018-10-02T17:40:05.696Z,36.88
2018-10-02T17:42:42.501Z,36.90
2018-10-02T17:47:56.016Z,36.66
2018-10-02T17:50:31.891Z,36.35
2018-10-02T17:53:08.280Z,36.50
2018-10-02T17:55:44.270Z,36.82
2018-10-02T17:58:20.498Z,37.47
2018-10-02T18:00:56.534Z,36.50
2018-10-02T18:03:33.503Z,36.93
2018-10-02T18:06:09.888Z,38.14
2018-10-02T18:08:45.868Z,36.50
2018-10-02T18:11:21.706Z,37.76
2018-10-02T18:13:57.525Z,37.54
2018-10-02T18:16:33.698Z,36.88
2018-10-02T18:19:09.702Z,37.28
2018-10-02T18:21:45.527Z,37.17
2018-10-02T18:24:21.525Z,37.17
2018-10-02T18:26:57.868Z,36.93
2018-10-02T18:29:34.148Z,36.57
2018-10-02T18:32:10.335Z,37.05
2018-10-02T18:34:46.853Z,37.00
2018-10-02T18:37:23.368Z,36.96
2018-10-02T18:39:59.453Z,36.45
2018-10-02T18:42:35.461Z,37.50
2018-10-02T18:45:11.457Z,37.40
2018-10-02T18:47:49.297Z,37.13
2018-10-02T18:50:25.466Z,36.72
2018-10-02T18:53:01.373Z,36.75
2018-10-02T18:55:37.548Z,37.80
2018-10-02T18:58:13.714Z,38.16
2018-10-02T19:00:49.718Z,37.43
2018-10-02T19:03:25.536Z,37.88
2018-10-02T19:06:01.582Z,37.26
2018-10-02T19:08:41.459Z,37.61
2018-10-02T19:11:21.307Z,36.84
2018-10-02T19:13:57.342Z,37.46
2018-10-02T19:16:34.897Z,37.29
2018-10-02T19:19:14.298Z,38.37
2018-10-02T19:21:50.299Z,37.51
2018-10-02T19:24:26.362Z,37.33
2018-10-02T19:27:02.681Z,37.73
2018-10-02T19:29:38.733Z,37.30
2018-10-02T19:32:17.336Z,36.93
2018-10-02T19:34:53.716Z,37.13
2018-10-02T19:37:33.748Z,37.82
2018-10-02T19:40:09.571Z,37.83
2018-10-02T19:42:45.761Z,37.64
2018-10-02T19:45:25.681Z,36.81
2018-10-02T19:48:01.418Z,37.17
2018-10-02T19:50:37.221Z,37.39
2018-10-02T19:53:13.434Z,37.24
2018-10-02T19:55:49.412Z,37.94
2018-10-02T19:58:25.363Z,37.49
2018-10-02T20:01:01.122Z,37.88
2018-10-02T20:03:37.333Z,37.54
2018-10-02T20:06:13.456Z,37.43
2018-10-02T20:08:49.741Z,37.22
2018-10-02T20:11:25.776Z,37.53
2018-10-02T20:14:01.914Z,38.00
2018-10-02T20:16:38.329Z,37.27
2018-10-02T20:19:14.740Z,37.57
2018-10-02T20:21:50.748Z,37.14
2018-10-02T20:24:26.329Z,37.17
2018-10-02T20:27:02.354Z,36.98
2018-10-02T20:29:38.348Z,37.69
2018-10-02T20:32:14.299Z,37.68
2018-10-02T20:34:50.351Z,37.11
2018-10-02T20:37:26.759Z,37.01
2018-10-02T20:40:02.614Z,37.31
2018-10-02T20:42:38.767Z,37.83
2018-10-02T20:45:14.809Z,37.87
2018-10-02T20:47:50.967Z,36.98
2018-10-02T20:50:28.226Z,38.00
2018-10-02T20:53:05.046Z,37.78
2018-10-02T20:55:41.288Z,37.38
2018-10-02T20:58:17.233Z,37.66
2018-10-02T21:00:54.303Z,37.45
2018-10-02T21:03:30.231Z,37.27
2018-10-02T21:06:06.474Z,37.13
2018-10-02T21:08:42.493Z,36.85
2018-10-02T21:11:18.501Z,37.06
2018-10-02T21:13:54.587Z,38.22
2018-10-02T21:16:30.595Z,37.76
2018-10-02T21:19:06.972Z,37.28
2018-10-02T21:21:42.642Z,38.32
2018-10-02T21:24:18.572Z,37.25
2018-10-02T21:26:54.724Z,36.96
2018-10-02T21:29:30.775Z,37.52
2018-10-02T21:32:06.725Z,37.21
2018-10-02T21:34:42.707Z,37.70
2018-10-02T21:37:18.990Z,37.09
2018-10-02T21:39:55.453Z,37.50
2018-10-02T21:42:31.429Z,37.26
2018-10-02T21:45:07.591Z,36.64
2018-10-02T21:47:43.431Z,36.90
2018-10-02T21:50:19.606Z,36.51
2018-10-02T21:52:55.510Z,36.61
2018-10-02T21:55:31.615Z,37.30
2018-10-02T21:58:07.615Z,37.72
2018-10-02T22:00:43.427Z,37.74
2018-10-02T22:03:19.609Z,37.74
2018-10-02T22:05:55.605Z,37.54
2018-10-02T22:08:31.626Z,36.69
2018-10-02T22:11:07.451Z,36.44
2018-10-02T22:13:43.634Z,36.66
2018-10-02T22:16:19.800Z,37.09
2018-10-02T22:18:55.651Z,37.25
2018-10-02T22:21:31.956Z,36.75
2018-10-02T22:24:40.606Z,36.72
2018-10-02T22:27:16.614Z,36.07
2018-10-02T22:29:52.630Z,37.46
2018-10-02T22:32:28.506Z,37.79
2018-10-02T22:35:04.635Z,37.08
2018-10-02T22:37:40.623Z,36.87
2018-10-02T22:40:16.628Z,36.99
2018-10-02T22:42:52.613Z,36.55
2018-10-02T22:45:28.623Z,36.78
2018-10-02T22:48:04.630Z,38.06
2018-10-02T22:50:40.457Z,37.56
2018-10-02T22:53:16.639Z,37.54
2018-10-02T22:55:52.626Z,37.82
2018-10-02T22:58:28.817Z,38.43
2018-10-02T23:01:04.633Z,38.20
2018-10-02T23:03:40.633Z,37.84
2018-10-02T23:06:16.638Z,38.58
2018-10-02T23:08:52.614Z,38.71
2018-10-02T23:11:28.684Z,37.94
2018-10-02T23:14:04.482Z,38.73
2018-10-02T23:16:40.478Z,38.52
2018-10-02T23:19:16.241Z,38.16
2018-10-02T23:21:51.817Z,38.22
2018-10-02T23:24:27.633Z,38.95
2018-10-02T23:27:03.643Z,37.96
2018-10-02T23:29:39.817Z,38.52
2018-10-02T23:32:15.773Z,37.74
2018-10-02T23:34:51.983Z,38.46
2018-10-02T23:37:28.388Z,38.08
2018-10-02T23:40:04.732Z,37.68
2018-10-02T23:42:40.836Z,37.93
2018-10-02T23:45:17.342Z,37.31
2018-10-02T23:47:53.984Z,37.12
2018-10-02T23:50:30.676Z,38.10
2018-10-02T23:53:07.987Z,37.30
2018-10-02T23:55:44.319Z,37.85
2018-10-02T23:58:20.858Z,37.24
